createdAt,value
2018-02-18T00:00:00.580Z,99.99
2018-02-18T00:01:00.492Z,99.99
2018-02-18T00:02:00.428Z,99.71
2018-02-18T00:03:00.328Z,99.33
2018-02-18T00:04:00.253Z,99.99
2018-02-18T00:05:00.163Z,99.99
2018-02-18T00:06:00.086Z,99.99
2018-02-18T00:06:59.994Z,99.99
2018-02-18T00:07:59.919Z,99.99
2018-02-18T00:08:59.832Z,99.99
2018-02-18T00:09:59.755Z,99.99
2018-02-18T00:10:59.665Z,99.99
2018-02-18T00:11:59.591Z,99.99
2018-02-18T00:12:59.504Z,99.99
2018-02-18T00:13:59.424Z,99.99
2018-02-18T00:14:59.334Z,99.99
2018-02-18T00:15:59.261Z,99.99
2018-02-18T00:16:59.168Z,99.99
2018-02-18T00:17:59.098Z,99.99
2018-02-18T00:18:59.002Z,99.99
2018-02-18T00:19:58.935Z,99.99
2018-02-18T00:20:58.840Z,99.71
2018-02-18T00:21:58.766Z,99.52
2018-02-18T00:22:58.675Z,99.14
2018-02-18T00:23:58.597Z,99.33
2018-02-18T00:24:58.511Z,98.85
2018-02-18T00:25:58.431Z,98.33
2018-02-18T00:26:58.345Z,97.39
2018-02-18T00:27:58.266Z,97.58
2018-02-18T00:28:58.177Z,97.39
2018-02-18T00:29:58.103Z,97.48
2018-02-18T00:30:58.053Z,98.05
2018-02-18T00:31:57.942Z,97.48
2018-02-18T00:32:57.847Z,97.96
2018-02-18T00:33:57.771Z,97.86
2018-02-18T00:34:57.681Z,97.86
2018-02-18T00:35:57.607Z,98.05
2018-02-18T00:36:57.516Z,97.96
2018-02-18T00:37:57.440Z,97.67
2018-02-18T00:38:57.351Z,97.58
2018-02-18T00:39:57.276Z,97.58
2018-02-18T00:40:57.186Z,97.48
2018-02-18T00:41:57.109Z,98.71
2018-02-18T00:42:57.020Z,98.61
2018-02-18T00:43:56.945Z,98.99
2018-02-18T00:44:56.856Z,99.37
2018-02-18T00:45:56.782Z,99.27
2018-02-18T00:46:56.690Z,99.37
2018-02-18T00:47:56.613Z,99.56
2018-02-18T00:48:56.523Z,99.46
2018-02-18T00:49:56.451Z,98.99
2018-02-18T00:50:56.360Z,98.71
2018-02-18T00:51:56.284Z,98.43
2018-02-18T00:52:56.190Z,98.43
2018-02-18T00:53:56.116Z,97.96
2018-02-18T00:54:56.028Z,97.77
2018-02-18T00:55:55.954Z,97.20
2018-02-18T00:56:55.859Z,97.29
2018-02-18T00:57:55.794Z,97.86
2018-02-18T00:58:55.695Z,97.67
2018-02-18T00:59:55.624Z,97.10
2018-02-18T01:00:55.530Z,97.29
2018-02-18T01:01:55.453Z,97.10
2018-02-18T01:02:55.374Z,97.10
2018-02-18T01:03:55.289Z,97.39
2018-02-18T01:04:55.200Z,97.20
2018-02-18T01:05:55.127Z,97.39
2018-02-18T01:06:55.032Z,96.91
2018-02-18T01:07:54.958Z,96.73
2018-02-18T01:08:54.865Z,96.73
2018-02-18T01:09:54.794Z,96.25
2018-02-18T01:10:54.707Z,96.35
2018-02-18T01:11:54.627Z,95.87
2018-02-18T01:12:54.537Z,95.12
2018-02-18T01:13:54.459Z,95.59
2018-02-18T01:14:54.367Z,95.97
2018-02-18T01:15:54.294Z,95.87
2018-02-18T01:16:54.201Z,96.35
2018-02-18T01:17:54.129Z,96.82
2018-02-18T01:18:54.039Z,96.91
2018-02-18T01:19:53.960Z,97.39
2018-02-18T01:20:53.872Z,97.39
2018-02-18T01:21:53.798Z,96.73
2018-02-18T01:22:53.706Z,97.05
2018-02-18T01:23:53.631Z,97.24
2018-02-18T01:24:53.538Z,97.77
2018-02-18T01:25:53.465Z,97.91
2018-02-18T01:26:53.375Z,97.53
2018-02-18T01:27:53.299Z,97.81
2018-02-18T01:28:53.208Z,97.62
2018-02-18T01:29:53.133Z,98.00
2018-02-18T01:30:53.039Z,98.38
2018-02-18T01:31:52.966Z,98.47
2018-02-18T01:32:52.874Z,97.81
2018-02-18T01:33:52.796Z,97.43
2018-02-18T01:34:52.716Z,97.43
2018-02-18T01:35:52.632Z,97.62
2018-02-18T01:36:52.539Z,97.72
2018-02-18T01:37:52.468Z,97.81
2018-02-18T01:38:52.374Z,97.62
2018-02-18T01:39:52.299Z,98.19
2018-02-18T01:40:52.208Z,98.38
2018-02-18T01:41:52.127Z,98.66
2018-02-18T01:42:52.039Z,99.51
2018-02-18T01:43:51.966Z,99.41
2018-02-18T01:44:51.872Z,99.22
2018-02-18T01:45:51.806Z,99.41
2018-02-18T01:46:51.708Z,98.85
2018-02-18T01:47:51.633Z,98.57
2018-02-18T01:48:51.540Z,98.47
2018-02-18T01:49:51.468Z,97.43
2018-02-18T01:50:51.384Z,96.86
2018-02-18T01:51:51.299Z,97.43
2018-02-18T01:52:51.203Z,97.72
2018-02-18T01:53:51.131Z,97.24
2018-02-18T01:54:51.042Z,97.43
2018-02-18T01:55:50.968Z,97.53
2018-02-18T01:56:50.874Z,96.68
2018-02-18T01:57:50.795Z,96.11
2018-02-18T01:58:51.643Z,95.36
2018-02-18T01:59:50.632Z,95.45
2018-02-18T02:00:50.545Z,95.36
2018-02-18T02:01:50.462Z,95.26
2018-02-18T02:02:50.378Z,95.07
2018-02-18T02:03:50.298Z,95.17
2018-02-18T02:04:50.207Z,95.54
2018-02-18T02:05:50.132Z,96.01
2018-02-18T02:06:50.040Z,95.73
2018-02-18T02:07:49.966Z,95.36
2018-02-18T02:08:49.870Z,95.92
2018-02-18T02:09:49.793Z,96.77
2018-02-18T02:10:49.705Z,96.49
2018-02-18T02:11:49.629Z,96.39
2018-02-18T02:12:49.539Z,96.86
2018-02-18T02:13:49.460Z,95.92
2018-02-18T02:14:49.372Z,96.11
2018-02-18T02:15:49.295Z,96.30
2018-02-18T02:16:49.205Z,95.73
2018-02-18T02:17:49.129Z,95.45
2018-02-18T02:18:49.040Z,95.73
2018-02-18T02:19:48.961Z,95.64
2018-02-18T02:20:48.868Z,95.36
2018-02-18T02:21:48.790Z,95.26
2018-02-18T02:22:48.700Z,95.17
2018-02-18T02:23:48.628Z,93.28
2018-02-18T02:24:48.534Z,92.52
2018-02-18T02:25:48.456Z,90.92
2018-02-18T02:26:48.368Z,90.92
2018-02-18T02:27:48.295Z,90.92
2018-02-18T02:28:48.200Z,90.64
2018-02-18T02:29:48.125Z,91.39
2018-02-18T02:30:48.034Z,92.90
2018-02-18T02:31:47.966Z,94.32
2018-02-18T02:32:47.869Z,94.79
2018-02-18T02:33:47.796Z,95.26
2018-02-18T02:34:47.698Z,95.54
2018-02-18T02:35:47.627Z,95.92
2018-02-18T02:36:47.531Z,96.49
2018-02-18T02:37:47.456Z,96.96
2018-02-18T02:38:47.366Z,96.81
2018-02-18T02:39:47.287Z,97.00
2018-02-18T02:40:47.197Z,97.10
2018-02-18T02:41:47.119Z,96.72
2018-02-18T02:42:47.029Z,96.25
2018-02-18T02:43:46.954Z,96.72
2018-02-18T02:44:46.862Z,96.44
2018-02-18T02:45:46.783Z,96.44
2018-02-18T02:46:46.690Z,96.44
2018-02-18T02:47:46.616Z,95.40
2018-02-18T02:48:46.524Z,95.21
2018-02-18T02:49:46.449Z,94.55
2018-02-18T02:50:46.356Z,94.36
2018-02-18T02:51:46.283Z,94.65
2018-02-18T02:52:46.203Z,94.65
2018-02-18T02:53:46.113Z,94.74
2018-02-18T02:54:46.021Z,95.31
2018-02-18T02:55:45.946Z,95.21
2018-02-18T02:56:45.854Z,96.44
2018-02-18T02:57:45.776Z,96.34
2018-02-18T02:58:45.684Z,96.15
2018-02-18T02:59:45.610Z,95.87
2018-02-18T03:00:45.517Z,96.15
2018-02-18T03:01:45.440Z,95.40
2018-02-18T03:02:45.355Z,95.68
2018-02-18T03:03:45.272Z,95.12
2018-02-18T03:04:45.180Z,95.87
2018-02-18T03:05:45.100Z,95.12
2018-02-18T03:06:45.012Z,94.55
2018-02-18T03:07:44.934Z,94.27
2018-02-18T03:08:44.842Z,93.80
2018-02-18T03:09:44.771Z,94.08
2018-02-18T03:10:44.679Z,94.36
2018-02-18T03:11:44.604Z,93.51
2018-02-18T03:12:44.505Z,92.85
2018-02-18T03:13:44.441Z,93.13
2018-02-18T03:14:44.340Z,93.23
2018-02-18T03:15:44.260Z,93.23
2018-02-18T03:16:44.178Z,93.04
2018-02-18T03:17:44.098Z,93.32
2018-02-18T03:18:44.001Z,93.32
2018-02-18T03:19:43.929Z,93.80
2018-02-18T03:20:43.842Z,94.46
2018-02-18T03:21:43.764Z,94.27
2018-02-18T03:22:43.665Z,94.18
2018-02-18T03:23:43.587Z,94.36
2018-02-18T03:24:43.497Z,93.80
2018-02-18T03:25:43.419Z,93.70
2018-02-18T03:26:43.329Z,93.61
2018-02-18T03:27:43.253Z,93.51
2018-02-18T03:28:43.164Z,94.36
2018-02-18T03:29:43.087Z,94.18
2018-02-18T03:30:42.993Z,94.65
2018-02-18T03:31:42.915Z,94.55
2018-02-18T03:32:42.825Z,94.93
2018-02-18T03:33:42.753Z,95.31
2018-02-18T03:34:42.660Z,95.68
2018-02-18T03:35:42.579Z,95.68
2018-02-18T03:36:42.487Z,95.68
2018-02-18T03:37:42.409Z,95.87
2018-02-18T03:38:42.318Z,96.06
2018-02-18T03:39:42.243Z,96.53
2018-02-18T03:40:42.146Z,97.19
2018-02-18T03:41:42.076Z,97.10
2018-02-18T03:42:41.978Z,97.29
2018-02-18T03:43:41.907Z,97.29
2018-02-18T03:44:41.811Z,96.53
2018-02-18T03:45:41.733Z,96.25
2018-02-18T03:46:41.642Z,95.21
2018-02-18T03:47:41.565Z,94.65
2018-02-18T03:48:41.472Z,94.74
2018-02-18T03:49:41.398Z,94.74
2018-02-18T03:50:41.305Z,94.65
2018-02-18T03:51:41.229Z,94.65
2018-02-18T03:52:41.136Z,94.55
2018-02-18T03:53:41.057Z,94.74
2018-02-18T03:54:40.970Z,94.74
2018-02-18T03:55:40.892Z,94.08
2018-02-18T03:56:40.799Z,93.13
2018-02-18T03:57:40.728Z,93.23
2018-02-18T03:58:40.627Z,93.23
2018-02-18T03:59:40.553Z,93.13
2018-02-18T04:00:40.459Z,92.29
2018-02-18T04:01:40.386Z,92.76
2018-02-18T04:02:40.292Z,92.47
2018-02-18T04:03:40.215Z,92.19
2018-02-18T04:04:40.126Z,92.85
2018-02-18T04:05:40.043Z,92.66
2018-02-18T04:06:39.954Z,93.23
2018-02-18T04:07:39.876Z,94.55
2018-02-18T04:08:39.783Z,94.69
2018-02-18T04:09:39.705Z,95.21
2018-02-18T04:10:39.614Z,95.26
2018-02-18T04:11:39.540Z,94.51
2018-02-18T04:12:39.443Z,94.74
2018-02-18T04:13:39.367Z,94.51
2018-02-18T04:14:39.276Z,94.79
2018-02-18T04:15:39.197Z,94.51
2018-02-18T04:16:39.103Z,94.41
2018-02-18T04:17:39.026Z,94.22
2018-02-18T04:18:38.935Z,93.18
2018-02-18T04:19:38.858Z,92.80
2018-02-18T04:20:38.763Z,93.28
2018-02-18T04:21:38.693Z,93.47
2018-02-18T04:22:38.600Z,93.47
2018-02-18T04:23:38.520Z,93.28
2018-02-18T04:24:38.428Z,93.37
2018-02-18T04:25:38.350Z,92.80
2018-02-18T04:26:38.258Z,94.03
2018-02-18T04:27:38.186Z,94.69
2018-02-18T04:28:38.087Z,95.26
2018-02-18T04:29:38.012Z,94.98
2018-02-18T04:30:37.920Z,95.45
2018-02-18T04:31:37.847Z,95.45
2018-02-18T04:32:37.751Z,94.41
2018-02-18T04:33:37.671Z,93.75
2018-02-18T04:34:37.580Z,91.30
2018-02-18T04:35:37.502Z,88.56
2018-02-18T04:36:37.416Z,88.18
2018-02-18T04:37:37.331Z,87.05
2018-02-18T04:38:37.240Z,86.30
2018-02-18T04:39:37.168Z,85.92
2018-02-18T04:40:37.072Z,85.73
2018-02-18T04:41:36.992Z,84.60
2018-02-18T04:42:36.902Z,84.32
2018-02-18T04:43:36.825Z,83.56
2018-02-18T04:44:36.734Z,84.22
2018-02-18T04:45:36.660Z,85.64
2018-02-18T04:46:36.564Z,86.30
2018-02-18T04:47:36.484Z,85.92
2018-02-18T04:48:36.393Z,85.26
2018-02-18T04:49:36.318Z,84.22
2018-02-18T04:50:36.221Z,83.47
2018-02-18T04:51:36.148Z,82.53
2018-02-18T04:52:36.055Z,81.49
2018-02-18T04:53:35.977Z,81.68
2018-02-18T04:54:35.881Z,81.87
2018-02-18T04:55:35.801Z,81.77
2018-02-18T04:56:35.712Z,82.58
2018-02-18T04:57:35.631Z,83.14
2018-02-18T04:58:35.542Z,84.94
2018-02-18T04:59:35.468Z,86.16
2018-02-18T05:00:35.370Z,87.10
2018-02-18T05:01:35.293Z,87.10
2018-02-18T05:02:35.213Z,87.29
2018-02-18T05:03:35.120Z,88.04
2018-02-18T05:04:35.031Z,87.95
2018-02-18T05:05:34.987Z,88.42
2018-02-18T05:06:34.863Z,88.89
2018-02-18T05:07:34.799Z,89.27
2018-02-18T05:08:34.688Z,89.08
2018-02-18T05:09:34.706Z,89.65
2018-02-18T05:10:34.520Z,89.18
2018-02-18T05:11:34.513Z,88.80
2018-02-18T05:12:34.347Z,87.10
2018-02-18T05:13:34.324Z,85.69
2018-02-18T05:14:34.175Z,84.28
2018-02-18T05:15:34.130Z,83.99
2018-02-18T05:16:34.005Z,83.14
2018-02-18T05:17:33.954Z,83.33
2018-02-18T05:18:33.838Z,83.71
2018-02-18T05:19:33.851Z,83.99
2018-02-18T05:20:33.662Z,84.09
2018-02-18T05:21:33.654Z,84.18
2018-02-18T05:22:33.490Z,84.09
2018-02-18T05:23:33.466Z,84.09
2018-02-18T05:24:33.324Z,83.52
2018-02-18T05:25:33.246Z,84.18
2018-02-18T05:26:33.148Z,84.18
2018-02-18T05:27:33.088Z,84.94
2018-02-18T05:28:32.978Z,84.84
2018-02-18T05:29:32.994Z,84.75
2018-02-18T05:30:32.809Z,84.94
2018-02-18T05:31:32.805Z,84.18
2018-02-18T05:32:32.634Z,83.33
2018-02-18T05:33:32.616Z,83.24
2018-02-18T05:34:32.475Z,84.56
2018-02-18T05:35:32.419Z,84.75
2018-02-18T05:36:32.295Z,83.52
2018-02-18T05:37:32.214Z,82.20
2018-02-18T05:38:32.123Z,81.82
2018-02-18T05:39:32.138Z,82.67
2018-02-18T05:40:31.953Z,82.76
2018-02-18T05:41:31.888Z,83.61
2018-02-18T05:42:31.776Z,84.94
2018-02-18T05:43:31.754Z,86.16
2018-02-18T05:44:31.605Z,86.54
2018-02-18T05:45:31.562Z,86.72
2018-02-18T05:46:31.432Z,84.94
2018-02-18T05:47:31.352Z,83.61
2018-02-18T05:48:31.258Z,82.76
2018-02-18T05:49:31.282Z,83.71
2018-02-18T05:50:31.086Z,83.52
2018-02-18T05:51:31.008Z,83.52
2018-02-18T05:52:30.916Z,84.47
2018-02-18T05:53:30.839Z,85.31
2018-02-18T05:54:30.744Z,85.78
2018-02-18T05:55:30.710Z,86.25
2018-02-18T05:56:30.571Z,86.91
2018-02-18T05:57:30.511Z,87.57
2018-02-18T05:58:30.400Z,86.35
2018-02-18T05:59:30.322Z,85.46
2018-02-18T06:00:30.227Z,85.36
2018-02-18T06:01:30.148Z,86.49
2018-02-18T06:02:30.064Z,87.53
2018-02-18T06:03:29.979Z,88.57
2018-02-18T06:04:29.884Z,88.66
2018-02-18T06:05:29.848Z,89.13
2018-02-18T06:06:29.711Z,89.13
2018-02-18T06:07:29.657Z,88.95
2018-02-18T06:08:29.535Z,88.38
2018-02-18T06:09:29.567Z,88.10
2018-02-18T06:10:29.367Z,88.95
2018-02-18T06:11:29.380Z,88.47
2018-02-18T06:12:29.193Z,88.66
2018-02-18T06:13:29.184Z,87.34
2018-02-18T06:14:29.021Z,85.83
2018-02-18T06:15:28.994Z,85.17
2018-02-18T06:16:28.849Z,84.80
2018-02-18T06:17:28.801Z,84.52
2018-02-18T06:18:28.674Z,85.64
2018-02-18T06:19:28.611Z,85.55
2018-02-18T06:20:28.503Z,85.46
2018-02-18T06:21:28.520Z,84.23
2018-02-18T06:22:28.328Z,84.14
2018-02-18T06:23:28.329Z,84.05
2018-02-18T06:24:28.156Z,84.42
2018-02-18T06:25:28.136Z,84.99
2018-02-18T06:26:27.984Z,85.46
2018-02-18T06:27:27.945Z,85.36
2018-02-18T06:28:27.815Z,86.30
2018-02-18T06:29:27.753Z,86.96
2018-02-18T06:30:27.634Z,86.96
2018-02-18T06:31:27.662Z,86.30
2018-02-18T06:32:27.462Z,86.30
2018-02-18T06:33:27.476Z,85.64
2018-02-18T06:34:27.289Z,85.46
2018-02-18T06:35:27.280Z,85.08
2018-02-18T06:36:27.117Z,84.80
2018-02-18T06:37:27.089Z,85.17
2018-02-18T06:38:26.944Z,85.36
2018-02-18T06:39:26.864Z,85.64
2018-02-18T06:40:26.771Z,84.33
2018-02-18T06:41:26.693Z,83.58
2018-02-18T06:42:26.599Z,83.29
2018-02-18T06:43:26.520Z,83.48
2018-02-18T06:44:26.424Z,83.76
2018-02-18T06:45:26.345Z,83.95
2018-02-18T06:46:26.251Z,84.61
2018-02-18T06:47:26.233Z,84.99
2018-02-18T06:48:26.078Z,85.08
2018-02-18T06:49:26.046Z,84.80
2018-02-18T06:50:25.905Z,84.89
2018-02-18T06:51:25.857Z,84.33
2018-02-18T06:52:25.732Z,84.14
2018-02-18T06:53:25.761Z,83.58
2018-02-18T06:54:25.559Z,83.39
2018-02-18T06:55:25.480Z,83.01
2018-02-18T06:56:25.385Z,83.10
2018-02-18T06:57:25.374Z,83.29
2018-02-18T06:58:25.212Z,83.58
2018-02-18T06:59:25.188Z,83.10
2018-02-18T07:00:25.039Z,83.39
2018-02-18T07:01:24.994Z,83.10
2018-02-18T07:02:24.864Z,83.01
2018-02-18T07:03:24.801Z,83.48
2018-02-18T07:04:24.696Z,83.58
2018-02-18T07:05:24.719Z,84.05
2018-02-18T07:06:24.520Z,84.61
2018-02-18T07:07:24.436Z,84.89
2018-02-18T07:08:24.352Z,85.83
2018-02-18T07:09:24.329Z,87.34
2018-02-18T07:10:24.173Z,88.38
2018-02-18T07:11:24.091Z,88.66
2018-02-18T07:12:24.010Z,89.42
2018-02-18T07:13:23.944Z,89.61
2018-02-18T07:14:23.828Z,90.08
2018-02-18T07:15:23.855Z,89.42
2018-02-18T07:16:23.654Z,88.76
2018-02-18T07:17:23.664Z,88.10
2018-02-18T07:18:23.481Z,88.57
2018-02-18T07:19:24.093Z,88.47
2018-02-18T07:20:23.306Z,88.66
2018-02-18T07:21:23.279Z,88.66
2018-02-18T07:22:23.137Z,88.33
2018-02-18T07:23:23.091Z,88.04
2018-02-18T07:24:22.958Z,87.29
2018-02-18T07:25:22.901Z,87.10
2018-02-18T07:26:22.787Z,86.35
2018-02-18T07:27:22.808Z,86.44
2018-02-18T07:28:22.617Z,85.64
2018-02-18T07:29:22.613Z,85.46
2018-02-18T07:30:22.440Z,85.64
2018-02-18T07:31:22.425Z,86.59
2018-02-18T07:32:22.267Z,86.30
2018-02-18T07:33:22.232Z,86.68
2018-02-18T07:34:22.097Z,87.57
2018-02-18T07:35:22.041Z,88.23
2018-02-18T07:36:21.919Z,88.71
2018-02-18T07:37:21.921Z,88.80
2018-02-18T07:38:21.751Z,88.52
2018-02-18T07:39:21.666Z,89.37
2018-02-18T07:40:21.573Z,89.37
2018-02-18T07:41:21.569Z,89.18
2018-02-18T07:42:21.403Z,89.56
2018-02-18T07:43:21.381Z,89.46
2018-02-18T07:44:21.226Z,89.65
2018-02-18T07:45:21.186Z,89.84
2018-02-18T07:46:21.056Z,90.69
2018-02-18T07:47:20.993Z,90.36
2018-02-18T07:48:20.910Z,90.92
2018-02-18T07:49:20.804Z,90.55
2018-02-18T07:50:20.717Z,90.36
2018-02-18T07:51:20.717Z,89.79
2018-02-18T07:52:21.150Z,89.22
2018-02-18T07:53:20.521Z,88.94
2018-02-18T07:54:20.365Z,89.03
2018-02-18T07:55:20.290Z,88.65
2018-02-18T07:56:20.196Z,88.51
2018-02-18T07:57:20.138Z,88.13
2018-02-18T07:58:20.056Z,87.29
2018-02-18T07:59:20.049Z,87.00
2018-02-18T08:00:19.850Z,85.68
2018-02-18T08:01:19.856Z,85.02
2018-02-18T08:02:19.686Z,84.92
2018-02-18T08:03:19.665Z,85.21
2018-02-18T08:04:19.505Z,85.59
2018-02-18T08:05:19.475Z,86.63
2018-02-18T08:06:19.383Z,86.44
2018-02-18T08:07:19.283Z,86.63
2018-02-18T08:08:19.170Z,85.68
2018-02-18T08:09:19.193Z,86.29
2018-02-18T08:10:18.999Z,85.72
2018-02-18T08:11:18.999Z,86.57
2018-02-18T08:12:18.824Z,86.57
2018-02-18T08:13:18.805Z,86.10
2018-02-18T08:14:18.657Z,85.63
2018-02-18T08:15:18.617Z,86.19
2018-02-18T08:16:18.489Z,85.63
2018-02-18T08:17:18.411Z,85.44
2018-02-18T08:18:18.324Z,85.16
2018-02-18T08:19:18.336Z,84.97
2018-02-18T08:20:18.151Z,85.49
2018-02-18T08:21:18.143Z,85.01
2018-02-18T08:22:17.981Z,84.45
2018-02-18T08:23:17.947Z,84.54
2018-02-18T08:24:17.811Z,83.50
2018-02-18T08:25:17.762Z,82.65
2018-02-18T08:26:17.640Z,81.80
2018-02-18T08:27:17.673Z,81.04
2018-02-18T08:28:17.471Z,81.61
2018-02-18T08:29:17.397Z,81.90
2018-02-18T08:30:17.308Z,83.22
2018-02-18T08:31:17.220Z,83.69
2018-02-18T08:32:17.195Z,84.26
2018-02-18T08:33:17.059Z,84.07
2018-02-18T08:34:16.973Z,84.68
2018-02-18T08:35:16.884Z,84.86
2018-02-18T08:36:16.911Z,84.49
2018-02-18T08:37:16.714Z,83.83
2018-02-18T08:38:16.720Z,83.36
2018-02-18T08:39:16.550Z,84.01
2018-02-18T08:40:16.528Z,83.45
2018-02-18T08:41:16.381Z,83.17
2018-02-18T08:42:16.336Z,83.45
2018-02-18T08:43:16.215Z,83.45
2018-02-18T08:44:16.144Z,82.79
2018-02-18T08:45:16.049Z,83.07
2018-02-18T08:46:16.057Z,82.83
2018-02-18T08:47:15.886Z,83.21
2018-02-18T08:48:15.866Z,83.40
2018-02-18T08:49:15.718Z,83.87
2018-02-18T08:50:15.675Z,83.21
2018-02-18T08:51:15.556Z,82.83
2018-02-18T08:52:15.583Z,82.54
2018-02-18T08:53:15.386Z,82.73
2018-02-18T08:54:15.392Z,82.78
2018-02-18T08:55:15.221Z,82.02
2018-02-18T08:56:15.207Z,82.12
2018-02-18T08:57:15.063Z,81.93
2018-02-18T08:58:15.982Z,81.55
2018-02-18T08:59:14.893Z,82.21
2018-02-18T09:00:14.921Z,82.78
2018-02-18T09:01:14.733Z,81.93
2018-02-18T09:02:14.729Z,82.78
2018-02-18T09:03:14.563Z,82.87
2018-02-18T09:04:14.536Z,82.97
2018-02-18T09:05:14.401Z,83.44
2018-02-18T09:06:14.345Z,83.63
2018-02-18T09:07:14.235Z,83.44
2018-02-18T09:08:14.259Z,83.72
2018-02-18T09:09:14.073Z,84.67
2018-02-18T09:10:14.063Z,84.86
2018-02-18T09:11:13.911Z,85.24
2018-02-18T09:12:13.834Z,85.14
2018-02-18T09:13:13.743Z,86.14
2018-02-18T09:14:13.680Z,86.52
2018-02-18T09:15:13.581Z,86.80
2018-02-18T09:16:13.512Z,87.74
2018-02-18T09:17:13.414Z,88.31
2018-02-18T09:18:13.400Z,88.79
2018-02-18T09:19:13.260Z,88.79
2018-02-18T09:20:13.175Z,89.26
2018-02-18T09:21:13.090Z,89.92
2018-02-18T09:22:13.119Z,90.01
2018-02-18T09:23:12.927Z,89.92
2018-02-18T09:24:12.926Z,89.92
2018-02-18T09:25:12.763Z,90.58
2018-02-18T09:26:12.694Z,91.24
2018-02-18T09:27:12.597Z,90.58
2018-02-18T09:28:12.578Z,90.68
2018-02-18T09:29:12.436Z,90.96
2018-02-18T09:30:12.362Z,91.34
2018-02-18T09:31:12.273Z,91.43
2018-02-18T09:32:12.260Z,92.00
2018-02-18T09:33:12.109Z,91.72
2018-02-18T09:34:12.034Z,91.43
2018-02-18T09:35:12.601Z,91.62
2018-02-18T09:36:11.881Z,92.29
2018-02-18T09:37:11.780Z,92.00
2018-02-18T09:38:11.820Z,91.91
2018-02-18T09:39:11.618Z,91.34
2018-02-18T09:40:12.624Z,91.24
2018-02-18T09:41:11.462Z,91.53
2018-02-18T09:42:11.415Z,91.62
2018-02-18T09:43:11.292Z,91.05
2018-02-18T09:44:11.314Z,90.96
2018-02-18T09:45:11.126Z,91.20
2018-02-18T09:46:11.127Z,90.06
2018-02-18T09:47:10.963Z,90.06
2018-02-18T09:48:10.895Z,90.11
2018-02-18T09:49:10.803Z,89.97
2018-02-18T09:50:10.746Z,89.92
2018-02-18T09:51:10.639Z,90.06
2018-02-18T09:52:10.655Z,90.82
2018-02-18T09:53:10.475Z,90.91
2018-02-18T09:54:10.463Z,90.63
2018-02-18T09:55:10.371Z,90.72
2018-02-18T09:56:10.271Z,90.91
2018-02-18T09:57:10.153Z,90.72
2018-02-18T09:58:10.184Z,91.20
2018-02-18T09:59:09.984Z,91.58
2018-02-18T10:00:10.009Z,91.10
2018-02-18T10:01:09.823Z,90.82
2018-02-18T10:02:09.750Z,90.63
2018-02-18T10:03:09.662Z,90.53
2018-02-18T10:04:09.617Z,90.06
2018-02-18T10:05:09.496Z,89.78
2018-02-18T10:06:09.627Z,89.50
2018-02-18T10:07:09.333Z,89.50
2018-02-18T10:08:09.435Z,89.69
2018-02-18T10:09:09.168Z,89.69
2018-02-18T10:10:09.244Z,89.69
2018-02-18T10:11:09.008Z,89.87
2018-02-18T10:12:09.153Z,89.50
2018-02-18T10:13:08.847Z,89.44
2018-02-18T10:14:08.969Z,88.59
2018-02-18T10:15:08.685Z,87.27
2018-02-18T10:16:08.672Z,87.74
2018-02-18T10:17:08.521Z,88.31
2018-02-18T10:18:08.479Z,86.66
2018-02-18T10:19:08.360Z,86.51
2018-02-18T10:20:08.393Z,85.38
2018-02-18T10:21:08.205Z,85.47
2018-02-18T10:22:08.200Z,85.94
2018-02-18T10:23:08.033Z,85.85
2018-02-18T10:24:08.013Z,85.94
2018-02-18T10:25:07.875Z,86.22
2018-02-18T10:26:07.931Z,86.32
2018-02-18T10:27:07.711Z,86.22
2018-02-18T10:28:07.730Z,85.75
2018-02-18T10:29:07.555Z,85.75
2018-02-18T10:30:07.539Z,85.66
2018-02-18T10:31:07.392Z,85.19
2018-02-18T10:32:07.351Z,85.38
2018-02-18T10:33:07.225Z,85.85
2018-02-18T10:34:07.260Z,86.04
2018-02-18T10:35:07.065Z,84.61
2018-02-18T10:36:07.073Z,84.61
2018-02-18T10:37:06.906Z,84.81
2018-02-18T10:38:06.875Z,84.81
2018-02-18T10:39:06.743Z,84.90
2018-02-18T10:40:06.788Z,85.19
2018-02-18T10:41:06.590Z,86.13
2018-02-18T10:42:06.601Z,85.85
2018-02-18T10:43:06.424Z,85.85
2018-02-18T10:44:06.415Z,84.90
2018-02-18T10:45:06.259Z,85.09
2018-02-18T10:46:06.319Z,85.00
2018-02-18T10:47:06.098Z,85.09
2018-02-18T10:48:06.126Z,85.19
2018-02-18T10:49:05.946Z,85.28
2018-02-18T10:50:05.935Z,85.57
2018-02-18T10:51:05.775Z,85.75
2018-02-18T10:52:05.749Z,86.32
2018-02-18T10:53:05.618Z,86.89
2018-02-18T10:54:05.653Z,86.89
2018-02-18T10:55:05.463Z,86.89
2018-02-18T10:56:05.472Z,86.70
2018-02-18T10:57:05.302Z,86.89
2018-02-18T10:58:05.273Z,86.60
2018-02-18T10:59:05.136Z,86.79
2018-02-18T11:00:05.183Z,87.17
2018-02-18T11:01:04.971Z,87.74
2018-02-18T11:02:04.994Z,87.55
2018-02-18T11:03:04.818Z,88.02
2018-02-18T11:04:04.808Z,88.59
2018-02-18T11:05:04.669Z,88.49
2018-02-18T11:06:04.716Z,88.12
2018-02-18T11:07:04.509Z,88.59
2018-02-18T11:08:04.553Z,88.45
2018-02-18T11:09:04.332Z,88.40
2018-02-18T11:10:04.333Z,88.93
2018-02-18T11:11:04.167Z,89.31
2018-02-18T11:12:04.259Z,88.55
2018-02-18T11:13:04.006Z,88.68
2018-02-18T11:14:04.058Z,88.97
2018-02-18T11:15:03.863Z,89.25
2018-02-18T11:16:03.859Z,88.87
2018-02-18T11:17:03.684Z,89.06
2018-02-18T11:18:03.672Z,89.35
2018-02-18T11:19:03.525Z,88.97
2018-02-18T11:20:03.583Z,88.68
2018-02-18T11:21:03.362Z,88.78
2018-02-18T11:22:03.393Z,88.02
2018-02-18T11:23:03.202Z,87.78
2018-02-18T11:24:03.208Z,86.89
2018-02-18T11:25:03.040Z,86.74
2018-02-18T11:26:03.118Z,85.70
2018-02-18T11:27:02.885Z,85.89
2018-02-18T11:28:02.921Z,84.94
2018-02-18T11:29:02.730Z,84.19
2018-02-18T11:30:02.738Z,83.43
2018-02-18T11:31:02.562Z,83.33
2018-02-18T11:32:02.542Z,82.86
2018-02-18T11:33:02.403Z,83.71
2018-02-18T11:34:02.353Z,83.75
2018-02-18T11:35:02.251Z,83.66
2018-02-18T11:36:02.260Z,82.33
2018-02-18T11:37:02.092Z,81.86
2018-02-18T11:38:02.204Z,81.95
2018-02-18T11:39:01.932Z,82.33
2018-02-18T11:40:01.982Z,82.43
2018-02-18T11:41:01.778Z,81.29
2018-02-18T11:42:01.785Z,81.48
2018-02-18T11:43:01.671Z,82.52
2018-02-18T11:44:01.597Z,82.90
2018-02-18T11:45:01.457Z,82.71
2018-02-18T11:46:01.513Z,82.71
2018-02-18T11:47:01.289Z,82.71
2018-02-18T11:48:01.319Z,82.71
2018-02-18T11:49:01.145Z,83.37
2018-02-18T11:50:01.146Z,83.09
2018-02-18T11:51:00.980Z,82.71
2018-02-18T11:52:01.037Z,83.09
2018-02-18T11:53:00.832Z,82.62
2018-02-18T11:54:00.808Z,83.47
2018-02-18T11:55:00.664Z,82.90
2018-02-18T11:56:00.626Z,82.90
2018-02-18T11:57:00.504Z,82.33
2018-02-18T11:58:00.428Z,82.62
2018-02-18T11:59:00.350Z,83.28
2018-02-18T12:00:00.272Z,82.90
2018-02-18T12:01:00.184Z,83.00
2018-02-18T12:02:00.112Z,82.28
2018-02-18T12:03:00.027Z,81.81
2018-02-18T12:03:59.956Z,81.81
2018-02-18T12:04:59.871Z,81.24
2018-02-18T12:05:59.799Z,81.52
2018-02-18T12:06:59.713Z,81.90
2018-02-18T12:07:59.638Z,81.81
2018-02-18T12:08:59.556Z,81.14
2018-02-18T12:09:59.485Z,81.62
2018-02-18T12:10:59.398Z,81.81
2018-02-18T12:11:59.326Z,81.71
2018-02-18T12:12:59.242Z,81.90
2018-02-18T12:13:59.170Z,81.90
2018-02-18T12:14:59.085Z,81.52
2018-02-18T12:15:59.015Z,81.90
2018-02-18T12:16:58.927Z,81.24
2018-02-18T12:17:58.858Z,81.33
2018-02-18T12:18:58.771Z,81.33
2018-02-18T12:19:58.699Z,81.52
2018-02-18T12:20:58.616Z,80.29
2018-02-18T12:21:58.541Z,80.67
2018-02-18T12:22:58.458Z,80.67
2018-02-18T12:23:58.384Z,81.24
2018-02-18T12:24:58.300Z,81.33
2018-02-18T12:25:58.228Z,81.05
2018-02-18T12:26:58.143Z,80.48
2018-02-18T12:27:58.071Z,81.43
2018-02-18T12:28:57.987Z,81.71
2018-02-18T12:29:57.924Z,81.43
2018-02-18T12:30:57.833Z,80.86
2018-02-18T12:31:57.764Z,80.19
2018-02-18T12:32:57.675Z,80.33
2018-02-18T12:33:57.605Z,80.29
2018-02-18T12:34:57.519Z,81.05
2018-02-18T12:35:57.450Z,81.05
2018-02-18T12:36:57.363Z,80.29
2018-02-18T12:37:57.294Z,80.48
2018-02-18T12:38:57.207Z,80.48
2018-02-18T12:39:57.136Z,80.67
2018-02-18T12:40:57.053Z,81.14
2018-02-18T12:41:56.980Z,80.95
2018-02-18T12:42:56.900Z,80.57
2018-02-18T12:43:56.826Z,81.24
2018-02-18T12:44:56.738Z,81.52
2018-02-18T12:45:56.668Z,81.52
2018-02-18T12:46:56.582Z,81.43
2018-02-18T12:47:56.509Z,81.90
2018-02-18T12:48:56.430Z,82.28
2018-02-18T12:49:56.357Z,82.94
2018-02-18T12:50:56.271Z,83.04